sensor_id;sensor_type;location;lat;lon;timestamp;pressure;altitude;pressure_sealevel;temperature;humidity
70544;BME280;58097;48.364;-1.224;2023-02-24T00:01:17;99427.31;;;6.95;90.90
70544;BME280;58097;48.364;-1.224;2023-02-24T00:04:02;99418.91;;;6.97;91.02
70544;BME280;58097;48.364;-1.224;2023-02-24T00:06:32;99414.28;;;6.97;91.01
70544;BME280;58097;48.364;-1.224;2023-02-24T00:09:28;99414.13;;;6.99;90.98
70544;BME280;58097;48.364;-1.224;2023-02-24T00:12:00;99419.78;;;6.97;91.02
70544;BME280;58097;48.364;-1.224;2023-02-24T00:14:29;99415.72;;;7.01;91.03
70544;BME280;58097;48.364;-1.224;2023-02-24T00:16:55;99411.94;;;7.02;91.11
70544;BME280;58097;48.364;-1.224;2023-02-24T00:19:23;99409.91;;;7.04;91.06
70544;BME280;58097;48.364;-1.224;2023-02-24T00:21:49;99402.53;;;7.05;91.29
70544;BME280;58097;48.364;-1.224;2023-02-24T00:24:16;99406.16;;;7.05;91.20
70544;BME280;58097;48.364;-1.224;2023-02-24T00:26:42;99400.66;;;7.05;91.52
70544;BME280;58097;48.364;-1.224;2023-02-24T00:29:09;99395.16;;;7.05;91.54
70544;BME280;58097;48.364;-1.224;2023-02-24T00:31:35;99393.44;;;7.04;91.49
70544;BME280;58097;48.364;-1.224;2023-02-24T00:34:04;99399.78;;;7.05;91.54
70544;BME280;58097;48.364;-1.224;2023-02-24T00:36:30;99397.03;;;7.05;91.59
70544;BME280;58097;48.364;-1.224;2023-02-24T00:39:03;99394.84;;;7.08;91.41
70544;BME280;58097;48.364;-1.224;2023-02-24T00:41:38;99390.38;;;7.07;91.69
70544;BME280;58097;48.364;-1.224;2023-02-24T00:44:06;99391.25;;;7.08;91.66
70544;BME280;58097;48.364;-1.224;2023-02-24T00:46:36;99388.34;;;7.09;91.72
70544;BME280;58097;48.364;-1.224;2023-02-24T00:49:03;99394.56;;;7.11;91.72
70544;BME280;58097;48.364;-1.224;2023-02-24T00:51:37;99390.06;;;7.10;92.12
70544;BME280;58097;48.364;-1.224;2023-02-24T00:54:03;99392.81;;;7.10;92.20
70544;BME280;58097;48.364;-1.224;2023-02-24T00:56:29;99391.09;;;7.09;92.04
70544;BME280;58097;48.364;-1.224;2023-02-24T00:58:56;99391.50;;;7.14;91.98
70544;BME280;58097;48.364;-1.224;2023-02-24T01:01:28;99390.78;;;7.12;92.24
70544;BME280;58097;48.364;-1.224;2023-02-24T01:03:58;99384.13;;;7.15;92.06
70544;BME280;58097;48.364;-1.224;2023-02-24T01:06:25;99375.88;;;7.15;92.19
70544;BME280;58097;48.364;-1.224;2023-02-24T01:08:53;99379.50;;;7.15;92.30
70544;BME280;58097;48.364;-1.224;2023-02-24T01:11:24;99371.41;;;7.14;92.20
70544;BME280;58097;48.364;-1.224;2023-02-24T01:14:11;99374.28;;;7.12;92.30
70544;BME280;58097;48.364;-1.224;2023-02-24T01:16:37;99367.94;;;7.12;92.35
70544;BME280;58097;48.364;-1.224;2023-02-24T01:19:03;99366.22;;;7.11;92.42
70544;BME280;58097;48.364;-1.224;2023-02-24T01:21:31;99364.31;;;7.11;92.51
70544;BME280;58097;48.364;-1.224;2023-02-24T01:23:57;99362.59;;;7.10;92.62
70544;BME280;58097;48.364;-1.224;2023-02-24T01:26:22;99361.44;;;7.13;92.57
70544;BME280;58097;48.364;-1.224;2023-02-24T01:28:50;99361.28;;;7.14;92.42
70544;BME280;58097;48.364;-1.224;2023-02-24T01:31:16;99356.09;;;7.11;92.35
70544;BME280;58097;48.364;-1.224;2023-02-24T01:33:48;99348.84;;;7.10;92.22
70544;BME280;58097;48.364;-1.224;2023-02-24T01:36:32;99348.31;;;7.07;92.30
70544;BME280;58097;48.364;-1.224;2023-02-24T01:38:59;99346.88;;;7.03;92.57
70544;BME280;58097;48.364;-1.224;2023-02-24T01:41:25;99335.75;;;7.04;92.44
70544;BME280;58097;48.364;-1.224;2023-02-24T01:43:58;99336.03;;;7.01;92.52
70544;BME280;58097;48.364;-1.224;2023-02-24T01:46:27;99324.66;;;6.96;92.89
70544;BME280;58097;48.364;-1.224;2023-02-24T01:48:57;99320.91;;;6.97;93.06
70544;BME280;58097;48.364;-1.224;2023-02-24T01:51:25;99318.69;;;7.01;93.09
70544;BME280;58097;48.364;-1.224;2023-02-24T01:53:53;99321.28;;;7.02;93.11
70544;BME280;58097;48.364;-1.224;2023-02-24T01:56:19;99318.53;;;7.02;93.12
70544;BME280;58097;48.364;-1.224;2023-02-24T01:58:45;99318.25;;;7.05;93.11
70544;BME280;58097;48.364;-1.224;2023-02-24T02:01:14;99321.28;;;7.02;93.25
70544;BME280;58097;48.364;-1.224;2023-02-24T02:03:41;99318.53;;;7.02;93.31
70544;BME280;58097;48.364;-1.224;2023-02-24T02:06:10;99317.53;;;7.03;93.23
70544;BME280;58097;48.364;-1.224;2023-02-24T02:08:39;99317.38;;;7.05;93.25
70544;BME280;58097;48.364;-1.224;2023-02-24T02:11:08;99316.34;;;7.06;93.22
70544;BME280;58097;48.364;-1.224;2023-02-24T02:13:35;99320.13;;;7.05;93.18
70544;BME280;58097;48.364;-1.224;2023-02-24T02:27:02;99311.00;;;7.04;93.30
70544;BME280;58097;48.364;-1.224;2023-02-24T02:29:37;99314.63;;;7.05;93.25
70544;BME280;58097;48.364;-1.224;2023-02-24T02:35:11;99296.25;;;7.05;93.11
70544;BME280;58097;48.364;-1.224;2023-02-24T02:37:43;99297.44;;;7.03;93.40
70544;BME280;58097;48.364;-1.224;2023-02-24T02:43:13;99295.41;;;7.05;93.14
70544;BME280;58097;48.364;-1.224;2023-02-24T02:48:29;99289.75;;;7.06;93.23
70544;BME280;58097;48.364;-1.224;2023-02-24T02:51:03;99291.63;;;7.06;93.22
70544;BME280;58097;48.364;-1.224;2023-02-24T02:53:59;99294.53;;;7.04;93.28
70544;BME280;58097;48.364;-1.224;2023-02-24T02:56:36;99290.22;;;7.02;93.26
70544;BME280;58097;48.364;-1.224;2023-02-24T02:59:07;99292.81;;;7.03;93.40
70544;BME280;58097;48.364;-1.224;2023-02-24T03:01:37;99292.81;;;7.03;93.29
70544;BME280;58097;48.364;-1.224;2023-02-24T03:04:07;99293.97;;;7.01;93.32
70544;BME280;58097;48.364;-1.224;2023-02-24T03:06:41;99288.78;;;6.98;93.25
70544;BME280;58097;48.364;-1.224;2023-02-24T03:09:10;99283.44;;;6.96;93.21
70544;BME280;58097;48.364;-1.224;2023-02-24T03:11:44;99278.25;;;6.93;92.94
70544;BME280;58097;48.364;-1.224;2023-02-24T03:14:15;99262.38;;;6.87;93.03
70544;BME280;58097;48.364;-1.224;2023-02-24T03:16:43;99266.47;;;6.83;92.83
70544;BME280;58097;48.364;-1.224;2023-02-24T03:19:15;99261.13;;;6.81;92.85
70544;BME280;58097;48.364;-1.224;2023-02-24T03:21:43;99259.53;;;6.79;92.90
70544;BME280;58097;48.364;-1.224;2023-02-24T03:24:10;99260.41;;;6.79;92.76
70544;BME280;58097;48.364;-1.224;2023-02-24T03:29:44;99259.53;;;6.79;92.70
70544;BME280;58097;48.364;-1.224;2023-02-24T03:32:37;99258.69;;;6.78;92.60
70544;BME280;58097;48.364;-1.224;2023-02-24T03:35:15;99258.84;;;6.77;92.46
70544;BME280;58097;48.364;-1.224;2023-02-24T03:37:41;99258.84;;;6.77;92.44
70544;BME280;58097;48.364;-1.224;2023-02-24T03:40:10;99249.88;;;6.75;92.42
70544;BME280;58097;48.364;-1.224;2023-02-24T03:42:46;99250.19;;;6.72;92.36
70544;BME280;58097;48.364;-1.224;2023-02-24T03:45:13;99250.19;;;6.72;92.29
70544;BME280;58097;48.364;-1.224;2023-02-24T03:47:40;99250.34;;;6.70;92.27
70544;BME280;58097;48.364;-1.224;2023-02-24T03:50:15;99249.50;;;6.70;92.17
70544;BME280;58097;48.364;-1.224;2023-02-24T03:52:54;99242.28;;;6.69;92.04
70544;BME280;58097;48.364;-1.224;2023-02-24T04:00:57;99254.97;;;6.70;91.76
70544;BME280;58097;48.364;-1.224;2023-02-24T04:06:30;99246.75;;;6.70;91.60
70544;BME280;58097;48.364;-1.224;2023-02-24T04:09:16;99246.75;;;6.70;91.52
70544;BME280;58097;48.364;-1.224;2023-02-24T04:11:57;99245.16;;;6.67;91.20
70544;BME280;58097;48.364;-1.224;2023-02-24T04:14:33;99237.78;;;6.68;91.01
70544;BME280;58097;48.364;-1.224;2023-02-24T04:17:08;99246.75;;;6.70;91.06
70544;BME280;58097;48.364;-1.224;2023-02-24T04:19:37;99239.53;;;6.69;90.91
70544;BME280;58097;48.364;-1.224;2023-02-24T04:22:09;99232.16;;;6.69;90.77
70544;BME280;58097;48.364;-1.224;2023-02-24T04:24:37;99241.41;;;6.68;90.35
70544;BME280;58097;48.364;-1.224;2023-02-24T04:27:07;99242.28;;;6.69;90.32
70544;BME280;58097;48.364;-1.224;2023-02-24T04:29:40;99236.31;;;6.73;90.35
70544;BME280;58097;48.364;-1.224;2023-02-24T04:32:12;99233.41;;;6.75;90.20
70544;BME280;58097;48.364;-1.224;2023-02-24T04:34:40;99226.19;;;6.74;89.96
70544;BME280;58097;48.364;-1.224;2023-02-24T04:37:06;99233.72;;;6.72;90.02
70544;BME280;58097;48.364;-1.224;2023-02-24T04:39:32;99232.00;;;6.71;89.96
70544;BME280;58097;48.364;-1.224;2023-02-24T04:41:58;99227.22;;;6.73;89.71
70544;BME280;58097;48.364;-1.224;2023-02-24T04:44:26;99226.50;;;6.71;89.69
70544;BME280;58097;48.364;-1.224;2023-02-24T04:46:52;99231.13;;;6.70;89.44
70544;BME280;58097;48.364;-1.224;2023-02-24T04:49:18;99227.38;;;6.71;89.38
70544;BME280;58097;48.364;-1.224;2023-02-24T04:51:44;99231.44;;;6.67;89.24
70544;BME280;58097;48.364;-1.224;2023-02-24T04:54:12;99223.47;;;6.64;88.93
70544;BME280;58097;48.364;-1.224;2023-02-24T04:56:42;99227.56;;;6.60;89.02
70544;BME280;58097;48.364;-1.224;2023-02-24T04:59:09;99227.72;;;6.59;88.97
70544;BME280;58097;48.364;-1.224;2023-02-24T05:01:35;99233.50;;;6.56;89.17
70544;BME280;58097;48.364;-1.224;2023-02-24T05:04:04;99233.66;;;6.54;89.15
70544;BME280;58097;48.364;-1.224;2023-02-24T05:06:30;99231.94;;;6.53;89.62
70544;BME280;58097;48.364;-1.224;2023-02-24T05:08:56;99230.22;;;6.52;89.22
70544;BME280;58097;48.364;-1.224;2023-02-24T05:11:21;99227.31;;;6.53;89.20
70544;BME280;58097;48.364;-1.224;2023-02-24T05:13:47;99231.78;;;6.55;89.26
70544;BME280;58097;48.364;-1.224;2023-02-24T05:16:15;99232.66;;;6.55;89.11
70544;BME280;58097;48.364;-1.224;2023-02-24T05:18:41;99230.06;;;6.53;89.29
70544;BME280;58097;48.364;-1.224;2023-02-24T05:21:10;99225.44;;;6.54;89.15
70544;BME280;58097;48.364;-1.224;2023-02-24T05:23:55;99226.44;;;6.53;89.28
70544;BME280;58097;48.364;-1.224;2023-02-24T05:26:23;99227.47;;;6.52;89.10
70544;BME280;58097;48.364;-1.224;2023-02-24T05:28:51;99227.63;;;6.50;89.14
70544;BME280;58097;48.364;-1.224;2023-02-24T05:31:25;99239.59;;;6.49;89.06
70544;BME280;58097;48.364;-1.224;2023-02-24T05:33:54;99227.91;;;6.47;89.10
70544;BME280;58097;48.364;-1.224;2023-02-24T05:36:23;99224.31;;;6.47;89.26
70544;BME280;58097;48.364;-1.224;2023-02-24T05:38:51;99229.97;;;6.45;89.24
70544;BME280;58097;48.364;-1.224;2023-02-24T05:41:23;99228.22;;;6.44;89.28
70544;BME280;58097;48.364;-1.224;2023-02-24T05:43:57;99222.03;;;6.42;89.42
70544;BME280;58097;48.364;-1.224;2023-02-24T05:46:28;99213.09;;;6.40;89.18
70544;BME280;58097;48.364;-1.224;2023-02-24T05:48:54;99214.09;;;6.39;89.31
70544;BME280;58097;48.364;-1.224;2023-02-24T05:51:29;99207.91;;;6.37;89.38
70544;BME280;58097;48.364;-1.224;2023-02-24T05:54:05;99211.06;;;6.33;89.51
70544;BME280;58097;48.364;-1.224;2023-02-24T05:56:32;99203.84;;;6.32;89.49
70544;BME280;58097;48.364;-1.224;2023-02-24T05:59:02;99197.50;;;6.31;89.49
70544;BME280;58097;48.364;-1.224;2023-02-24T06:01:33;99202.59;;;6.26;89.48
70544;BME280;58097;48.364;-1.224;2023-02-24T06:04:02;99211.13;;;6.23;89.46
70544;BME280;58097;48.364;-1.224;2023-02-24T06:06:38;99206.09;;;6.18;89.57
70544;BME280;58097;48.364;-1.224;2023-02-24T06:09:06;99201.94;;;6.14;89.51
70544;BME280;58097;48.364;-1.224;2023-02-24T06:11:35;99202.09;;;6.13;89.52
70544;BME280;58097;48.364;-1.224;2023-02-24T06:14:01;99202.81;;;6.05;89.64
70544;BME280;58097;48.364;-1.224;2023-02-24T06:16:27;99206.31;;;5.98;89.93
70544;BME280;58097;48.364;-1.224;2023-02-24T06:18:53;99207.78;;;5.92;89.73
70544;BME280;58097;48.364;-1.224;2023-02-24T06:21:22;99200.56;;;5.91;89.89
70544;BME280;58097;48.364;-1.224;2023-02-24T06:23:47;99189.75;;;5.89;90.19
70544;BME280;58097;48.364;-1.224;2023-02-24T06:26:12;99192.59;;;5.88;90.23
70544;BME280;58097;48.364;-1.224;2023-02-24T06:28:43;99178.34;;;5.84;90.47
70544;BME280;58097;48.364;-1.224;2023-02-24T06:31:10;99175.03;;;5.81;90.33
70544;BME280;58097;48.364;-1.224;2023-02-24T06:33:39;99172.56;;;5.78;90.56
70544;BME280;58097;48.364;-1.224;2023-02-24T06:36:05;99174.31;;;5.79;90.64
70544;BME280;58097;48.364;-1.224;2023-02-24T06:38:33;99179.34;;;5.74;91.03
70544;BME280;58097;48.364;-1.224;2023-02-24T06:41:00;99186.72;;;5.73;91.10
70544;BME280;58097;48.364;-1.224;2023-02-24T06:43:37;99188.75;;;5.71;91.13
70544;BME280;58097;48.364;-1.224;2023-02-24T06:46:04;99194.06;;;5.73;91.15
70544;BME280;58097;48.364;-1.224;2023-02-24T06:48:30;99200.00;;;5.68;91.35
70544;BME280;58097;48.364;-1.224;2023-02-24T06:51:02;99207.06;;;5.71;91.28
70544;BME280;58097;48.364;-1.224;2023-02-24T06:53:27;99200.00;;;5.68;91.35
70544;BME280;58097;48.364;-1.224;2023-02-24T06:55:53;99203.03;;;5.65;91.42
70544;BME280;58097;48.364;-1.224;2023-02-24T06:58:19;99206.22;;;5.60;91.60
70544;BME280;58097;48.364;-1.224;2023-02-24T07:00:45;99201.91;;;5.58;91.54
70544;BME280;58097;48.364;-1.224;2023-02-24T07:03:25;99209.13;;;5.59;91.60
70544;BME280;58097;48.364;-1.224;2023-02-24T07:06:04;99205.66;;;5.57;91.61
70544;BME280;58097;48.364;-1.224;2023-02-24T07:08:45;99204.94;;;5.55;91.40
70544;BME280;58097;48.364;-1.224;2023-02-24T07:11:11;99203.50;;;5.51;91.67
70544;BME280;58097;48.364;-1.224;2023-02-24T07:13:38;99207.28;;;5.50;91.63
70544;BME280;58097;48.364;-1.224;2023-02-24T07:16:05;99213.63;;;5.50;91.63
70544;BME280;58097;48.364;-1.224;2023-02-24T07:18:35;99202.06;;;5.47;91.61
70544;BME280;58097;48.364;-1.224;2023-02-24T07:21:02;99211.28;;;5.46;91.26
70544;BME280;58097;48.364;-1.224;2023-02-24T07:23:38;99212.44;;;5.43;91.23
70544;BME280;58097;48.364;-1.224;2023-02-24T07:26:13;99208.13;;;5.41;91.33
70544;BME280;58097;48.364;-1.224;2023-02-24T07:28:40;99203.66;;;5.40;91.54
70544;BME280;58097;48.364;-1.224;2023-02-24T07:31:11;99206.81;;;5.45;91.39
70544;BME280;58097;48.364;-1.224;2023-02-24T07:33:37;99213.88;;;5.47;91.50
70544;BME280;58097;48.364;-1.224;2023-02-24T07:36:07;99218.22;;;5.50;91.56
70544;BME280;58097;48.364;-1.224;2023-02-24T07:38:40;99209.72;;;5.53;91.63
70544;BME280;58097;48.364;-1.224;2023-02-24T07:41:07;99224.84;;;5.57;91.46
70544;BME280;58097;48.364;-1.224;2023-02-24T07:43:34;99218.34;;;5.58;91.31
70544;BME280;58097;48.364;-1.224;2023-02-24T07:46:06;99216.03;;;5.63;91.39
70544;BME280;58097;48.364;-1.224;2023-02-24T07:48:33;99216.59;;;5.67;91.36
70544;BME280;58097;48.364;-1.224;2023-02-24T07:51:00;99209.09;;;5.69;91.40
70544;BME280;58097;48.364;-1.224;2023-02-24T07:53:25;99216.88;;;5.73;91.24
70544;BME280;58097;48.364;-1.224;2023-02-24T07:55:52;99216.72;;;5.75;91.10
70544;BME280;58097;48.364;-1.224;2023-02-24T07:58:18;99219.47;;;5.75;90.94
70544;BME280;58097;48.364;-1.224;2023-02-24T08:00:43;99211.94;;;5.77;90.81
70544;BME280;58097;48.364;-1.224;2023-02-24T08:03:27;99211.69;;;5.80;90.54
70544;BME280;58097;48.364;-1.224;2023-02-24T08:05:57;99216.31;;;5.79;89.86
70544;BME280;58097;48.364;-1.224;2023-02-24T08:08:39;99231.13;;;5.77;89.70
70544;BME280;58097;48.364;-1.224;2023-02-24T08:11:26;99231.44;;;5.83;89.79
70544;BME280;58097;48.364;-1.224;2023-02-24T08:14:08;99227.53;;;5.86;90.25
70544;BME280;58097;48.364;-1.224;2023-02-24T08:16:42;99222.75;;;5.88;89.81
70544;BME280;58097;48.364;-1.224;2023-02-24T08:19:10;99226.66;;;5.85;89.46
70544;BME280;58097;48.364;-1.224;2023-02-24T08:21:41;99225.66;;;5.86;89.18
70544;BME280;58097;48.364;-1.224;2023-02-24T08:24:13;99225.50;;;5.88;89.22
70544;BME280;58097;48.364;-1.224;2023-02-24T08:26:44;99220.63;;;5.92;89.21
70544;BME280;58097;48.364;-1.224;2023-02-24T08:29:10;99220.31;;;5.95;88.76
70544;BME280;58097;48.364;-1.224;2023-02-24T08:31:36;99217.28;;;5.98;89.13
70544;BME280;58097;48.364;-1.224;2023-02-24T08:34:01;99217.28;;;5.98;88.84
70544;BME280;58097;48.364;-1.224;2023-02-24T08:36:26;99218.84;;;6.00;88.86
70544;BME280;58097;48.364;-1.224;2023-02-24T08:38:52;99215.25;;;6.00;88.31
70544;BME280;58097;48.364;-1.224;2023-02-24T08:41:19;99222.47;;;6.01;88.52
70544;BME280;58097;48.364;-1.224;2023-02-24T08:43:53;99217.53;;;6.04;88.41
70544;BME280;58097;48.364;-1.224;2023-02-24T08:46:21;99199.06;;;6.06;88.19
70544;BME280;58097;48.364;-1.224;2023-02-24T08:48:55;99207.56;;;6.13;88.00
70544;BME280;58097;48.364;-1.224;2023-02-24T08:51:22;99201.47;;;6.19;87.68
70544;BME280;58097;48.364;-1.224;2023-02-24T08:54:03;99193.81;;;6.22;87.45
70544;BME280;58097;48.364;-1.224;2023-02-24T08:56:31;99198.34;;;6.41;87.84
70544;BME280;58097;48.364;-1.224;2023-02-24T08:59:01;99186.03;;;6.45;86.91
70544;BME280;58097;48.364;-1.224;2023-02-24T09:01:33;99178.91;;;6.52;86.06
70544;BME280;58097;48.364;-1.224;2023-02-24T09:04:10;99177.56;;;6.66;87.00
70544;BME280;58097;48.364;-1.224;2023-02-24T09:06:49;99167.13;;;6.88;86.37
70544;BME280;58097;48.364;-1.224;2023-02-24T09:09:19;99160.22;;;7.01;85.16
70544;BME280;58097;48.364;-1.224;2023-02-24T09:11:52;99157.22;;;7.12;85.32
70544;BME280;58097;48.364;-1.224;2023-02-24T09:14:26;99150.50;;;7.25;84.82
70544;BME280;58097;48.364;-1.224;2023-02-24T09:16:53;99157.72;;;7.26;82.86
70544;BME280;58097;48.364;-1.224;2023-02-24T09:19:45;99141.66;;;7.39;83.19
70544;BME280;58097;48.364;-1.224;2023-02-24T09:22:12;99134.50;;;7.46;81.50
70544;BME280;58097;48.364;-1.224;2023-02-24T09:25:00;99126.00;;;7.57;81.71
70544;BME280;58097;48.364;-1.224;2023-02-24T09:27:47;99129.53;;;7.50;78.42
70544;BME280;58097;48.364;-1.224;2023-02-24T09:30:18;99134.41;;;7.56;80.79
70544;BME280;58097;48.364;-1.224;2023-02-24T09:33:11;99137.22;;;7.64;79.94
70544;BME280;58097;48.364;-1.224;2023-02-24T09:38:13;99139.06;;;7.81;78.56
70544;BME280;58097;48.364;-1.224;2023-02-24T09:40:42;99140.44;;;7.85;76.03
70544;BME280;58097;48.364;-1.224;2023-02-24T09:43:21;99139.91;;;7.82;74.98
70544;BME280;58097;48.364;-1.224;2023-02-24T09:46:04;99148.41;;;7.70;74.66
70544;BME280;58097;48.364;-1.224;2023-02-24T09:48:48;99153.59;;;7.73;74.99
70544;BME280;58097;48.364;-1.224;2023-02-24T09:51:18;99141.63;;;7.83;77.09
70544;BME280;58097;48.364;-1.224;2023-02-24T09:53:54;99143.03;;;7.87;75.37
70544;BME280;58097;48.364;-1.224;2023-02-24T09:56:31;99149.94;;;7.91;76.72
70544;BME280;58097;48.364;-1.224;2023-02-24T10:02:23;99149.59;;;7.94;74.74
70544;BME280;58097;48.364;-1.224;2023-02-24T10:05:49;99152.84;;;7.89;74.55
70544;BME280;58097;48.364;-1.224;2023-02-24T10:08:06;99159.78;;;7.75;74.44
70544;BME280;58097;48.364;-1.224;2023-02-24T10:10:38;99158.75;;;7.76;75.89
70544;BME280;58097;48.364;-1.224;2023-02-24T10:13:07;99152.19;;;7.95;76.58
70544;BME280;58097;48.364;-1.224;2023-02-24T10:15:42;99153.06;;;7.96;75.75
70544;BME280;58097;48.364;-1.224;2023-02-24T10:18:41;99149.81;;;8.00;74.95
70544;BME280;58097;48.364;-1.224;2023-02-24T10:32:55;99154.47;;;7.74;72.89
70544;BME280;58097;48.364;-1.224;2023-02-24T10:35:26;99156.78;;;7.87;74.90
70544;BME280;58097;48.364;-1.224;2023-02-24T10:37:58;99139.97;;;7.90;74.40
70544;BME280;58097;48.364;-1.224;2023-02-24T10:40:32;99145.13;;;7.93;74.09
70544;BME280;58097;48.364;-1.224;2023-02-24T10:43:10;99140.69;;;8.00;74.58
70544;BME280;58097;48.364;-1.224;2023-02-24T10:45:40;99145.16;;;8.01;73.85
70544;BME280;58097;48.364;-1.224;2023-02-24T10:48:38;99143.44;;;8.00;73.32
70544;BME280;58097;48.364;-1.224;2023-02-24T10:51:14;99143.06;;;7.95;74.99
70544;BME280;58097;48.364;-1.224;2023-02-24T10:54:04;99147.59;;;8.04;75.78
70544;BME280;58097;48.364;-1.224;2023-02-24T10:56:50;99137.44;;;8.04;75.02
70544;BME280;58097;48.364;-1.224;2023-02-24T10:59:46;99146.50;;;7.89;73.51
70544;BME280;58097;48.364;-1.224;2023-02-24T11:02:38;99141.03;;;7.71;74.23
70544;BME280;58097;48.364;-1.224;2023-02-24T11:05:25;99136.03;;;7.66;75.33
70544;BME280;58097;48.364;-1.224;2023-02-24T11:08:14;99136.31;;;7.55;73.84
70544;BME280;58097;48.364;-1.224;2023-02-24T11:11:08;99133.31;;;7.49;74.06
70544;BME280;58097;48.364;-1.224;2023-02-24T11:13:47;99127.88;;;7.57;73.49
70544;BME280;58097;48.364;-1.224;2023-02-24T11:16:43;99125.53;;;7.44;73.11
70544;BME280;58097;48.364;-1.224;2023-02-24T11:19:29;99128.06;;;7.55;73.89
70544;BME280;58097;48.364;-1.224;2023-02-24T11:21:57;99133.31;;;7.74;75.21
70544;BME280;58097;48.364;-1.224;2023-02-24T11:24:23;99124.13;;;7.84;74.09
70544;BME280;58097;48.364;-1.224;2023-02-24T11:26:48;99119.06;;;7.79;72.41
70544;BME280;58097;48.364;-1.224;2023-02-24T11:34:31;99122.56;;;8.15;73.30
70544;BME280;58097;48.364;-1.224;2023-02-24T11:42:09;99097.66;;;8.33;73.25
70544;BME280;58097;48.364;-1.224;2023-02-24T11:44:48;99096.03;;;8.40;73.32
70544;BME280;58097;48.364;-1.224;2023-02-24T11:47:19;99094.88;;;8.17;71.78
70544;BME280;58097;48.364;-1.224;2023-02-24T11:49:52;99089.63;;;8.05;72.19
70544;BME280;58097;48.364;-1.224;2023-02-24T11:52:23;99084.88;;;8.16;73.80
70544;BME280;58097;48.364;-1.224;2023-02-24T11:54:54;99086.63;;;8.17;73.07
70544;BME280;58097;48.364;-1.224;2023-02-24T11:57:35;99092.03;;;8.34;72.28
70544;BME280;58097;48.364;-1.224;2023-02-24T12:00:15;99084.34;;;8.54;71.96
70544;BME280;58097;48.364;-1.224;2023-02-24T12:02:49;99082.50;;;8.71;71.82
70544;BME280;58097;48.364;-1.224;2023-02-24T12:05:27;99085.25;;;8.87;72.34
70544;BME280;58097;48.364;-1.224;2023-02-24T12:07:57;99080.13;;;9.09;72.67
70544;BME280;58097;48.364;-1.224;2023-02-24T12:10:35;99083.91;;;8.99;70.06
70544;BME280;58097;48.364;-1.224;2023-02-24T12:15:47;99078.34;;;8.67;71.14
70544;BME280;58097;48.364;-1.224;2023-02-24T12:21:39;99074.06;;;8.89;71.17
70544;BME280;58097;48.364;-1.224;2023-02-24T12:24:09;99066.66;;;8.81;71.27
70544;BME280;58097;48.364;-1.224;2023-02-24T12:29:34;99049.28;;;9.13;72.35
70544;BME280;58097;48.364;-1.224;2023-02-24T12:41:12;99036.84;;;9.34;70.81
70544;BME280;58097;48.364;-1.224;2023-02-24T12:43:57;99034.91;;;9.58;70.32
70544;BME280;58097;48.364;-1.224;2023-02-24T12:46:33;99032.09;;;9.75;71.30
70544;BME280;58097;48.364;-1.224;2023-02-24T12:56:47;99014.00;;;10.11;69.39
70544;BME280;58097;48.364;-1.224;2023-02-24T12:59:19;99012.81;;;10.14;69.26
70544;BME280;58097;48.364;-1.224;2023-02-24T13:04:38;99005.38;;;10.14;69.50
70544;BME280;58097;48.364;-1.224;2023-02-24T13:07:33;98999.59;;;10.32;70.82
70544;BME280;58097;48.364;-1.224;2023-02-24T13:10:23;99009.69;;;10.48;68.58
70544;BME280;58097;48.364;-1.224;2023-02-24T13:15:24;98995.78;;;10.33;68.22
70544;BME280;58097;48.364;-1.224;2023-02-24T13:17:52;98984.38;;;10.36;67.96
70544;BME280;58097;48.364;-1.224;2023-02-24T13:20:35;98988.00;;;10.37;68.17
70544;BME280;58097;48.364;-1.224;2023-02-24T13:23:02;98972.97;;;10.39;68.02
70544;BME280;58097;48.364;-1.224;2023-02-24T13:25:36;98971.06;;;10.40;68.09
70544;BME280;58097;48.364;-1.224;2023-02-24T13:28:05;98968.00;;;10.35;67.28
70544;BME280;58097;48.364;-1.224;2023-02-24T13:30:41;98968.19;;;10.33;67.42
70544;BME280;58097;48.364;-1.224;2023-02-24T13:35:43;98961.38;;;10.21;65.15
70544;BME280;58097;48.364;-1.224;2023-02-24T13:38:32;98964.25;;;10.28;66.93
70544;BME280;58097;48.364;-1.224;2023-02-24T13:46:22;98957.56;;;10.22;64.15
70544;BME280;58097;48.364;-1.224;2023-02-24T14:02:50;98927.41;;;10.43;66.90
70544;BME280;58097;48.364;-1.224;2023-02-24T14:05:21;98922.84;;;10.50;65.74
70544;BME280;58097;48.364;-1.224;2023-02-24T14:07:49;98912.47;;;10.52;65.44
70544;BME280;58097;48.364;-1.224;2023-02-24T14:10:21;98906.16;;;10.44;63.05
70544;BME280;58097;48.364;-1.224;2023-02-24T14:12:48;98901.88;;;10.41;63.78
70544;BME280;58097;48.364;-1.224;2023-02-24T14:15:19;98901.97;;;10.48;63.93
70544;BME280;58097;48.364;-1.224;2023-02-24T14:17:55;98894.44;;;10.42;63.54
70544;BME280;58097;48.364;-1.224;2023-02-24T14:20:21;98892.28;;;10.52;64.91
70544;BME280;58097;48.364;-1.224;2023-02-24T14:22:49;98894.66;;;10.55;64.86
70544;BME280;58097;48.364;-1.224;2023-02-24T14:25:15;98895.03;;;10.52;63.50
70544;BME280;58097;48.364;-1.224;2023-02-24T14:27:44;98894.25;;;10.43;63.13
70544;BME280;58097;48.364;-1.224;2023-02-24T14:30:35;98886.69;;;10.37;63.10
70544;BME280;58097;48.364;-1.224;2023-02-24T14:33:02;98895.97;;;10.21;61.55
70544;BME280;58097;48.364;-1.224;2023-02-24T14:37:57;98892.38;;;10.13;62.87
70544;BME280;58097;48.364;-1.224;2023-02-24T14:40:23;98896.13;;;10.20;62.94
70544;BME280;58097;48.364;-1.224;2023-02-24T14:42:49;98901.31;;;10.23;62.28
70544;BME280;58097;48.364;-1.224;2023-02-24T14:45:20;98892.09;;;10.31;62.40
70544;BME280;58097;48.364;-1.224;2023-02-24T14:47:46;98891.91;;;10.32;61.60
70544;BME280;58097;48.364;-1.224;2023-02-24T14:50:16;98886.28;;;10.26;60.23
70544;BME280;58097;48.364;-1.224;2023-02-24T14:53:05;98877.63;;;10.29;61.25
70544;BME280;58097;48.364;-1.224;2023-02-24T14:55:35;98872.09;;;10.29;59.67
70544;BME280;58097;48.364;-1.224;2023-02-24T14:58:47;98869.25;;;10.14;58.71
70544;BME280;58097;48.364;-1.224;2023-02-24T15:00:50;98884.38;;;10.26;61.32
70544;BME280;58097;48.364;-1.224;2023-02-24T15:05:56;98885.16;;;10.35;62.60
70544;BME280;58097;48.364;-1.224;2023-02-24T15:10:54;98883.31;;;10.50;61.86
70544;BME280;58097;48.364;-1.224;2023-02-24T15:13:37;98886.19;;;10.57;62.14
70544;BME280;58097;48.364;-1.224;2023-02-24T15:16:12;98892.28;;;10.52;61.50
70544;BME280;58097;48.364;-1.224;2023-02-24T15:18:39;98883.81;;;10.53;60.57
70544;BME280;58097;48.364;-1.224;2023-02-24T15:21:06;98881.97;;;10.46;58.46
70544;BME280;58097;48.364;-1.224;2023-02-24T15:23:36;98880.25;;;10.45;59.64